sensor_id;sensor_type;location;lat;lon;timestamp;temperature;humidity
21121;DHT22;12519;43.318;21.898;2023-01-28T00:04:00;2.4;54.0
21121;DHT22;12519;43.318;21.898;2023-01-28T00:08:37;2.5;54.0
21121;DHT22;12519;43.318;21.898;2023-01-28T00:13:13;2.5;54.0
21121;DHT22;12519;43.318;21.898;2023-01-28T00:17:49;2.5;54.0
21121;DHT22;12519;43.318;21.898;2023-01-28T00:22:26;2.5;54.0
21121;DHT22;12519;43.318;21.898;2023-01-28T00:27:02;2.5;55.0
21121;DHT22;12519;43.318;21.898;2023-01-28T00:31:39;2.5;55.0
21121;DHT22;12519;43.318;21.898;2023-01-28T00:36:23;2.6;56.0
21121;DHT22;12519;43.318;21.898;2023-01-28T00:41:18;2.6;56.0
21121;DHT22;12519;43.318;21.898;2023-01-28T00:46:04;2.6;56.0
21121;DHT22;12519;43.318;21.898;2023-01-28T00:50:47;2.6;57.0
21121;DHT22;12519;43.318;21.898;2023-01-28T00:55:24;2.6;57.0
21121;DHT22;12519;43.318;21.898;2023-01-28T01:00:05;2.6;57.0
21121;DHT22;12519;43.318;21.898;2023-01-28T01:04:46;2.6;57.0
21121;DHT22;12519;43.318;21.898;2023-01-28T01:18:40;2.6;58.0
21121;DHT22;12519;43.318;21.898;2023-01-28T01:23:16;2.6;58.0
21121;DHT22;12519;43.318;21.898;2023-01-28T01:27:52;2.6;58.0
21121;DHT22;12519;43.318;21.898;2023-01-28T01:32:32;2.6;58.0
21121;DHT22;12519;43.318;21.898;2023-01-28T01:37:08;2.7;59.0
21121;DHT22;12519;43.318;21.898;2023-01-28T01:41:45;2.7;59.0
21121;DHT22;12519;43.318;21.898;2023-01-28T01:46:40;2.8;59.0
21121;DHT22;12519;43.318;21.898;2023-01-28T01:51:33;2.8;59.0
21121;DHT22;12519;43.318;21.898;2023-01-28T01:56:27;3.0;60.0
21121;DHT22;12519;43.318;21.898;2023-01-28T02:01:27;3.0;60.0
21121;DHT22;12519;43.318;21.898;2023-01-28T02:06:08;3.0;60.0
21121;DHT22;12519;43.318;21.898;2023-01-28T02:10:58;3.2;61.0
21121;DHT22;12519;43.318;21.898;2023-01-28T02:15:46;3.2;61.0
21121;DHT22;12519;43.318;21.898;2023-01-28T02:21:27;3.2;62.0
21121;DHT22;12519;43.318;21.898;2023-01-28T02:27:21;3.3;64.0
21121;DHT22;12519;43.318;21.898;2023-01-28T02:32:27;3.3;64.0
21121;DHT22;12519;43.318;21.898;2023-01-28T02:37:33;3.4;68.0
21121;DHT22;12519;43.318;21.898;2023-01-28T02:42:29;3.4;68.0
21121;DHT22;12519;43.318;21.898;2023-01-28T02:47:12;3.4;72.0
21121;DHT22;12519;43.318;21.898;2023-01-28T02:52:30;3.4;72.0
21121;DHT22;12519;43.318;21.898;2023-01-28T02:57:43;3.2;78.0
21121;DHT22;12519;43.318;21.898;2023-01-28T03:02:43;3.2;78.0
21121;DHT22;12519;43.318;21.898;2023-01-28T03:07:36;3.0;83.0
21121;DHT22;12519;43.318;21.898;2023-01-28T03:12:27;3.0;83.0
21121;DHT22;12519;43.318;21.898;2023-01-28T03:17:35;3.1;86.0
21121;DHT22;12519;43.318;21.898;2023-01-28T03:22:36;3.1;86.0
21121;DHT22;12519;43.318;21.898;2023-01-28T03:27:52;3.2;89.0
21121;DHT22;12519;43.318;21.898;2023-01-28T03:32:45;3.2;89.0
21121;DHT22;12519;43.318;21.898;2023-01-28T03:37:26;3.2;91.0
21121;DHT22;12519;43.318;21.898;2023-01-28T03:42:12;3.2;91.0
21121;DHT22;12519;43.318;21.898;2023-01-28T03:46:51;3.1;94.0
21121;DHT22;12519;43.318;21.898;2023-01-28T03:51:28;3.1;94.0
21121;DHT22;12519;43.318;21.898;2023-01-28T03:56:06;3.1;94.0
21121;DHT22;12519;43.318;21.898;2023-01-28T04:00:43;3.0;96.0
21121;DHT22;12519;43.318;21.898;2023-01-28T04:05:20;3.0;96.0
21121;DHT22;12519;43.318;21.898;2023-01-28T04:09:56;2.9;98.0
21121;DHT22;12519;43.318;21.898;2023-01-28T04:14:33;2.9;98.0
21121;DHT22;12519;43.318;21.898;2023-01-28T04:19:11;2.8;98.0
21121;DHT22;12519;43.318;21.898;2023-01-28T04:23:47;2.8;98.0
21121;DHT22;12519;43.318;21.898;2023-01-28T04:28:24;2.7;98.0
21121;DHT22;12519;43.318;21.898;2023-01-28T04:33:00;2.7;98.0
21121;DHT22;12519;43.318;21.898;2023-01-28T04:37:40;2.7;99.0
21121;DHT22;12519;43.318;21.898;2023-01-28T04:42:16;2.7;99.0
21121;DHT22;12519;43.318;21.898;2023-01-28T04:46:53;2.6;99.0
21121;DHT22;12519;43.318;21.898;2023-01-28T04:51:30;2.6;99.0
21121;DHT22;12519;43.318;21.898;2023-01-28T04:56:07;2.6;99.0
21121;DHT22;12519;43.318;21.898;2023-01-28T05:00:43;2.6;99.0
21121;DHT22;12519;43.318;21.898;2023-01-28T05:05:20;2.6;99.0
21121;DHT22;12519;43.318;21.898;2023-01-28T05:09:57;2.6;99.0
21121;DHT22;12519;43.318;21.898;2023-01-28T05:14:33;2.6;99.0
21121;DHT22;12519;43.318;21.898;2023-01-28T05:19:10;2.4;98.0
21121;DHT22;12519;43.318;21.898;2023-01-28T05:23:46;2.4;98.0
21121;DHT22;12519;43.318;21.898;2023-01-28T05:28:23;2.3;98.0
21121;DHT22;12519;43.318;21.898;2023-01-28T05:33:00;2.3;98.0
21121;DHT22;12519;43.318;21.898;2023-01-28T05:37:36;2.3;91.0
21121;DHT22;12519;43.318;21.898;2023-01-28T05:42:12;2.3;91.0
21121;DHT22;12519;43.318;21.898;2023-01-28T05:46:49;2.3;91.0
21121;DHT22;12519;43.318;21.898;2023-01-28T05:51:25;2.4;84.0
21121;DHT22;12519;43.318;21.898;2023-01-28T05:56:03;2.4;84.0
21121;DHT22;12519;43.318;21.898;2023-01-28T06:00:42;2.4;84.0
21121;DHT22;12519;43.318;21.898;2023-01-28T06:05:20;2.4;84.0
21121;DHT22;12519;43.318;21.898;2023-01-28T06:09:56;2.5;85.0
21121;DHT22;12519;43.318;21.898;2023-01-28T06:14:33;2.5;85.0
21121;DHT22;12519;43.318;21.898;2023-01-28T06:19:11;2.4;86.0
21121;DHT22;12519;43.318;21.898;2023-01-28T06:23:48;2.4;86.0
21121;DHT22;12519;43.318;21.898;2023-01-28T06:28:25;2.4;87.0
21121;DHT22;12519;43.318;21.898;2023-01-28T06:33:02;2.4;87.0
21121;DHT22;12519;43.318;21.898;2023-01-28T06:37:39;2.5;88.0
21121;DHT22;12519;43.318;21.898;2023-01-28T06:42:16;2.5;88.0
21121;DHT22;12519;43.318;21.898;2023-01-28T06:46:52;2.5;88.0
21121;DHT22;12519;43.318;21.898;2023-01-28T06:51:29;2.6;90.0
21121;DHT22;12519;43.318;21.898;2023-01-28T06:56:07;2.6;90.0
21121;DHT22;12519;43.318;21.898;2023-01-28T07:00:43;2.6;90.0
21121;DHT22;12519;43.318;21.898;2023-01-28T07:05:19;2.6;90.0
21121;DHT22;12519;43.318;21.898;2023-01-28T07:09:56;2.6;91.0
21121;DHT22;12519;43.318;21.898;2023-01-28T07:14:32;2.6;91.0
21121;DHT22;12519;43.318;21.898;2023-01-28T07:19:08;2.6;91.0
21121;DHT22;12519;43.318;21.898;2023-01-28T07:23:45;2.6;91.0
21121;DHT22;12519;43.318;21.898;2023-01-28T07:28:21;2.5;91.0
21121;DHT22;12519;43.318;21.898;2023-01-28T07:32:59;2.5;91.0
21121;DHT22;12519;43.318;21.898;2023-01-28T07:37:37;2.6;91.0
21121;DHT22;12519;43.318;21.898;2023-01-28T07:42:14;2.6;91.0
21121;DHT22;12519;43.318;21.898;2023-01-28T07:46:50;2.6;91.0
21121;DHT22;12519;43.318;21.898;2023-01-28T07:51:27;2.6;91.0
21121;DHT22;12519;43.318;21.898;2023-01-28T07:56:04;2.6;91.0
21121;DHT22;12519;43.318;21.898;2023-01-28T08:00:42;2.8;92.0
21121;DHT22;12519;43.318;21.898;2023-01-28T08:05:20;2.8;92.0
21121;DHT22;12519;43.318;21.898;2023-01-28T08:09:57;2.9;94.0
21121;DHT22;12519;43.318;21.898;2023-01-28T08:14:33;2.9;94.0
21121;DHT22;12519;43.318;21.898;2023-01-28T08:19:09;3.1;95.0
21121;DHT22;12519;43.318;21.898;2023-01-28T08:23:45;3.1;95.0
21121;DHT22;12519;43.318;21.898;2023-01-28T08:28:22;3.3;96.0
21121;DHT22;12519;43.318;21.898;2023-01-28T08:33:00;3.3;96.0
21121;DHT22;12519;43.318;21.898;2023-01-28T08:37:37;3.2;96.0
21121;DHT22;12519;43.318;21.898;2023-01-28T08:42:14;3.2;96.0
21121;DHT22;12519;43.318;21.898;2023-01-28T08:46:50;3.2;96.0
21121;DHT22;12519;43.318;21.898;2023-01-28T08:51:27;3.2;97.0
21121;DHT22;12519;43.318;21.898;2023-01-28T08:56:06;3.2;97.0
21121;DHT22;12519;43.318;21.898;2023-01-28T09:00:47;3.2;97.0
21121;DHT22;12519;43.318;21.898;2023-01-28T09:05:27;3.2;97.0
21121;DHT22;12519;43.318;21.898;2023-01-28T09:10:08;3.3;98.0
21121;DHT22;12519;43.318;21.898;2023-01-28T09:14:47;3.3;98.0
21121;DHT22;12519;43.318;21.898;2023-01-28T09:19:24;3.8;92.0
21121;DHT22;12519;43.318;21.898;2023-01-28T09:24:00;3.8;92.0
21121;DHT22;12519;43.318;21.898;2023-01-28T09:28:36;4.3;86.0
21121;DHT22;12519;43.318;21.898;2023-01-28T09:33:13;4.3;86.0
21121;DHT22;12519;43.318;21.898;2023-01-28T09:37:50;4.3;93.0
21121;DHT22;12519;43.318;21.898;2023-01-28T09:43:01;4.3;93.0
21121;DHT22;12519;43.318;21.898;2023-01-28T09:48:04;4.3;100.0
21121;DHT22;12519;43.318;21.898;2023-01-28T09:53:00;4.3;100.0
21121;DHT22;12519;43.318;21.898;2023-01-28T09:57:52;4.0;100.0
21121;DHT22;12519;43.318;21.898;2023-01-28T10:03:07;4.0;100.0
21121;DHT22;12519;43.318;21.898;2023-01-28T10:09:05;3.8;100.0
21121;DHT22;12519;43.318;21.898;2023-01-28T10:14:39;3.8;100.0
21121;DHT22;12519;43.318;21.898;2023-01-28T10:19:56;3.6;100.0
21121;DHT22;12519;43.318;21.898;2023-01-28T10:24:54;3.6;100.0
21121;DHT22;12519;43.318;21.898;2023-01-28T10:29:38;3.4;100.0
21121;DHT22;12519;43.318;21.898;2023-01-28T10:34:15;3.4;100.0
21121;DHT22;12519;43.318;21.898;2023-01-28T10:38:52;3.4;100.0
21121;DHT22;12519;43.318;21.898;2023-01-28T10:43:38;3.4;100.0
21121;DHT22;12519;43.318;21.898;2023-01-28T10:48:28;3.4;100.0
21121;DHT22;12519;43.318;21.898;2023-01-28T10:53:08;3.4;100.0
21121;DHT22;12519;43.318;21.898;2023-01-28T10:57:44;3.4;100.0
21121;DHT22;12519;43.318;21.898;2023-01-28T11:02:33;3.4;100.0
21121;DHT22;12519;43.318;21.898;2023-01-28T11:07:20;3.4;100.0
21121;DHT22;12519;43.318;21.898;2023-01-28T11:12:10;3.3;100.0
21121;DHT22;12519;43.318;21.898;2023-01-28T11:16:57;3.3;100.0
21121;DHT22;12519;43.318;21.898;2023-01-28T11:21:35;3.3;100.0
21121;DHT22;12519;43.318;21.898;2023-01-28T11:26:21;3.3;100.0
21121;DHT22;12519;43.318;21.898;2023-01-28T11:31:17;3.3;100.0
21121;DHT22;12519;43.318;21.898;2023-01-28T11:36:14;3.3;100.0
21121;DHT22;12519;43.318;21.898;2023-01-28T11:40:59;3.5;100.0
21121;DHT22;12519;43.318;21.898;2023-01-28T11:46:10;3.5;100.0
21121;DHT22;12519;43.318;21.898;2023-01-28T11:52:18;3.7;100.0
21121;DHT22;12519;43.318;21.898;2023-01-28T11:57:57;3.7;100.0
21121;DHT22;12519;43.318;21.898;2023-01-28T12:03:38;3.7;100.0
21121;DHT22;12519;43.318;21.898;2023-01-28T12:08:37;3.7;100.0
21121;DHT22;12519;43.318;21.898;2023-01-28T12:14:02;3.7;100.0
21121;DHT22;12519;43.318;21.898;2023-01-28T12:19:26;5.1;86.0
21121;DHT22;12519;43.318;21.898;2023-01-28T12:25:04;5.1;86.0
21121;DHT22;12519;43.318;21.898;2023-01-28T12:30:25;6.5;72.0
21121;DHT22;12519;43.318;21.898;2023-01-28T12:35:54;6.5;72.0
21121;DHT22;12519;43.318;21.898;2023-01-28T12:41:10;6.0;85.0
21121;DHT22;12519;43.318;21.898;2023-01-28T12:46:08;6.0;85.0
21121;DHT22;12519;43.318;21.898;2023-01-28T12:51:18;5.4;97.0
21121;DHT22;12519;43.318;21.898;2023-01-28T12:56:17;5.4;97.0
21121;DHT22;12519;43.318;21.898;2023-01-28T13:01:15;4.8;99.0
21121;DHT22;12519;43.318;21.898;2023-01-28T13:06:20;4.8;99.0
21121;DHT22;12519;43.318;21.898;2023-01-28T13:11:17;4.3;100.0
21121;DHT22;12519;43.318;21.898;2023-01-28T13:15:57;4.3;100.0
21121;DHT22;12519;43.318;21.898;2023-01-28T13:20:47;4.2;100.0
21121;DHT22;12519;43.318;21.898;2023-01-28T13:25:27;4.2;100.0
21121;DHT22;12519;43.318;21.898;2023-01-28T13:30:27;4.1;100.0
21121;DHT22;12519;43.318;21.898;2023-01-28T13:35:36;4.1;100.0
21121;DHT22;12519;43.318;21.898;2023-01-28T13:40:29;4.0;100.0
21121;DHT22;12519;43.318;21.898;2023-01-28T13:45:24;4.0;100.0
21121;DHT22;12519;43.318;21.898;2023-01-28T13:50:14;4.0;100.0
21121;DHT22;12519;43.318;21.898;2023-01-28T13:55:12;4.0;100.0
21121;DHT22;12519;43.318;21.898;2023-01-28T14:00:20;4.2;100.0
21121;DHT22;12519;43.318;21.898;2023-01-28T14:05:59;4.2;100.0
21121;DHT22;12519;43.318;21.898;2023-01-28T14:12:11;4.4;100.0
21121;DHT22;12519;43.318;21.898;2023-01-28T14:17:58;4.4;100.0
21121;DHT22;12519;43.318;21.898;2023-01-28T14:22:40;4.4;100.0
21121;DHT22;12519;43.318;21.898;2023-01-28T14:27:34;4.4;100.0
21121;DHT22;12519;43.318;21.898;2023-01-28T14:32:30;4.3;100.0
21121;DHT22;12519;43.318;21.898;2023-01-28T14:37:21;4.3;100.0
21121;DHT22;12519;43.318;21.898;2023-01-28T14:42:22;4.2;100.0
21121;DHT22;12519;43.318;21.898;2023-01-28T14:47:49;4.2;100.0
21121;DHT22;12519;43.318;21.898;2023-01-28T14:53:25;4.2;100.0
21121;DHT22;12519;43.318;21.898;2023-01-28T14:58:29;4.0;100.0
21121;DHT22;12519;43.318;21.898;2023-01-28T15:03:18;4.0;100.0
21121;DHT22;12519;43.318;21.898;2023-01-28T15:07:55;4.0;100.0
21121;DHT22;12519;43.318;21.898;2023-01-28T15:12:43;3.8;100.0
21121;DHT22;12519;43.318;21.898;2023-01-28T15:17:27;3.8;100.0
21121;DHT22;12519;43.318;21.898;2023-01-28T15:22:07;3.7;100.0
21121;DHT22;12519;43.318;21.898;2023-01-28T15:26:49;3.7;100.0
21121;DHT22;12519;43.318;21.898;2023-01-28T15:31:32;3.6;100.0
21121;DHT22;12519;43.318;21.898;2023-01-28T15:36:11;3.6;100.0
21121;DHT22;12519;43.318;21.898;2023-01-28T15:40:58;3.7;100.0
21121;DHT22;12519;43.318;21.898;2023-01-28T15:45:45;3.7;100.0
21121;DHT22;12519;43.318;21.898;2023-01-28T15:50:26;3.8;100.0
21121;DHT22;12519;43.318;21.898;2023-01-28T15:55:19;3.8;100.0
21121;DHT22;12519;43.318;21.898;2023-01-28T16:00:21;3.8;100.0
21121;DHT22;12519;43.318;21.898;2023-01-28T16:05:05;3.8;100.0
21121;DHT22;12519;43.318;21.898;2023-01-28T16:10:03;3.9;100.0
21121;DHT22;12519;43.318;21.898;2023-01-28T16:14:49;3.9;100.0
21121;DHT22;12519;43.318;21.898;2023-01-28T16:19:40;3.8;100.0
21121;DHT22;12519;43.318;21.898;2023-01-28T16:24:26;3.8;100.0
21121;DHT22;12519;43.318;21.898;2023-01-28T16:29:14;3.8;100.0
21121;DHT22;12519;43.318;21.898;2023-01-28T16:33:51;3.8;100.0
21121;DHT22;12519;43.318;21.898;2023-01-28T16:38:27;3.8;100.0
21121;DHT22;12519;43.318;21.898;2023-01-28T16:43:11;3.8;100.0
21121;DHT22;12519;43.318;21.898;2023-01-28T16:47:53;3.8;100.0
21121;DHT22;12519;43.318;21.898;2023-01-28T16:52:29;3.8;100.0
21121;DHT22;12519;43.318;21.898;2023-01-28T16:57:15;3.8;100.0
21121;DHT22;12519;43.318;21.898;2023-01-28T17:01:57;3.9;100.0
21121;DHT22;12519;43.318;21.898;2023-01-28T17:06:36;3.9;100.0
21121;DHT22;12519;43.318;21.898;2023-01-28T17:11:14;4.0;100.0
21121;DHT22;12519;43.318;21.898;2023-01-28T17:15:51;4.0;100.0
21121;DHT22;12519;43.318;21.898;2023-01-28T17:20:28;3.8;100.0
21121;DHT22;12519;43.318;21.898;2023-01-28T17:25:06;3.8;100.0
21121;DHT22;12519;43.318;21.898;2023-01-28T17:29:44;3.7;100.0
21121;DHT22;12519;43.318;21.898;2023-01-28T17:34:20;3.7;100.0
21121;DHT22;12519;43.318;21.898;2023-01-28T17:38:57;4.1;80.0
21121;DHT22;12519;43.318;21.898;2023-01-28T17:43:34;4.1;80.0
21121;DHT22;12519;43.318;21.898;2023-01-28T17:48:10;4.1;80.0
21121;DHT22;12519;43.318;21.898;2023-01-28T17:52:47;4.4;60.0
21121;DHT22;12519;43.318;21.898;2023-01-28T17:57:28;4.4;60.0
21121;DHT22;12519;43.318;21.898;2023-01-28T18:02:08;4.2;69.0
21121;DHT22;12519;43.318;21.898;2023-01-28T18:06:45;4.2;69.0
21121;DHT22;12519;43.318;21.898;2023-01-28T18:11:22;4.0;79.0
21121;DHT22;12519;43.318;21.898;2023-01-28T18:15:59;4.0;79.0
21121;DHT22;12519;43.318;21.898;2023-01-28T18:20:36;4.0;83.0
21121;DHT22;12519;43.318;21.898;2023-01-28T18:25:17;4.0;83.0
21121;DHT22;12519;43.318;21.898;2023-01-28T18:29:54;4.0;88.0
21121;DHT22;12519;43.318;21.898;2023-01-28T18:34:33;4.0;88.0
21121;DHT22;12519;43.318;21.898;2023-01-28T18:39:11;3.9;90.0
21121;DHT22;12519;43.318;21.898;2023-01-28T18:43:49;3.9;90.0
21121;DHT22;12519;43.318;21.898;2023-01-28T18:48:25;3.9;90.0
21121;DHT22;12519;43.318;21.898;2023-01-28T18:53:02;3.8;93.0
21121;DHT22;12519;43.318;21.898;2023-01-28T18:57:38;3.8;93.0
21121;DHT22;12519;43.318;21.898;2023-01-28T19:02:15;3.7;94.0
21121;DHT22;12519;43.318;21.898;2023-01-28T19:06:56;3.7;94.0
21121;DHT22;12519;43.318;21.898;2023-01-28T19:11:34;3.6;95.0
21121;DHT22;12519;43.318;21.898;2023-01-28T19:16:11;3.6;95.0
21121;DHT22;12519;43.318;21.898;2023-01-28T19:20:47;3.4;96.0
21121;DHT22;12519;43.318;21.898;2023-01-28T19:25:24;3.4;96.0
21121;DHT22;12519;43.318;21.898;2023-01-28T19:30:02;3.3;96.0
21121;DHT22;12519;43.318;21.898;2023-01-28T19:34:42;3.3;96.0
21121;DHT22;12519;43.318;21.898;2023-01-28T19:39:19;3.4;97.0
21121;DHT22;12519;43.318;21.898;2023-01-28T19:43:58;3.4;97.0
21121;DHT22;12519;43.318;21.898;2023-01-28T19:48:34;3.4;97.0
21121;DHT22;12519;43.318;21.898;2023-01-28T19:53:11;3.4;97.0
21121;DHT22;12519;43.318;21.898;2023-01-28T19:57:47;3.4;97.0
21121;DHT22;12519;43.318;21.898;2023-01-28T20:02:24;3.4;98.0
21121;DHT22;12519;43.318;21.898;2023-01-28T20:07:01;3.4;98.0
21121;DHT22;12519;43.318;21.898;2023-01-28T20:11:37;3.5;98.0
21121;DHT22;12519;43.318;21.898;2023-01-28T20:16:20;3.5;98.0
21121;DHT22;12519;43.318;21.898;2023-01-28T20:21:00;3.6;99.0
21121;DHT22;12519;43.318;21.898;2023-01-28T20:25:37;3.6;99.0
21121;DHT22;12519;43.318;21.898;2023-01-28T20:30:14;3.8;99.0
21121;DHT22;12519;43.318;21.898;2023-01-28T20:34:52;3.8;99.0
21121;DHT22;12519;43.318;21.898;2023-01-28T20:39:28;3.8;99.0
21121;DHT22;12519;43.318;21.898;2023-01-28T20:44:05;3.8;99.0
21121;DHT22;12519;43.318;21.898;2023-01-28T20:48:43;3.8;99.0
21121;DHT22;12519;43.318;21.898;2023-01-28T20:53:20;3.8;99.0
21121;DHT22;12519;43.318;21.898;2023-01-28T20:57:57;3.8;99.0
21121;DHT22;12519;43.318;21.898;2023-01-28T21:02:34;3.7;99.0
21121;DHT22;12519;43.318;21.898;2023-01-28T21:07:10;3.7;99.0
21121;DHT22;12519;43.318;21.898;2023-01-28T21:11:47;3.6;100.0
21121;DHT22;12519;43.318;21.898;2023-01-28T21:16:25;3.6;100.0
21121;DHT22;12519;43.318;21.898;2023-01-28T21:21:07;3.6;100.0
21121;DHT22;12519;43.318;21.898;2023-01-28T21:25:53;3.6;100.0
21121;DHT22;12519;43.318;21.898;2023-01-28T21:30:29;3.5;100.0
21121;DHT22;12519;43.318;21.898;2023-01-28T21:35:08;3.5;100.0
21121;DHT22;12519;43.318;21.898;2023-01-28T21:39:44;3.5;100.0
21121;DHT22;12519;43.318;21.898;2023-01-28T21:44:21;3.5;100.0
21121;DHT22;12519;43.318;21.898;2023-01-28T21:49:02;3.5;100.0
21121;DHT22;12519;43.318;21.898;2023-01-28T21:53:41;3.5;100.0
21121;DHT22;12519;43.318;21.898;2023-01-28T21:58:17;3.5;100.0
21121;DHT22;12519;43.318;21.898;2023-01-28T22:02:53;3.6;100.0
21121;DHT22;12519;43.318;21.898;2023-01-28T22:07:30;3.6;100.0
21121;DHT22;12519;43.318;21.898;2023-01-28T22:12:07;3.8;100.0
21121;DHT22;12519;43.318;21.898;2023-01-28T22:16:47;3.8;100.0
21121;DHT22;12519;43.318;21.898;2023-01-28T22:21:24;3.9;100.0
21121;DHT22;12519;43.318;21.898;2023-01-28T22:26:01;3.9;100.0
21121;DHT22;12519;43.318;21.898;2023-01-28T22:30:38;4.0;100.0
21121;DHT22;12519;43.318;21.898;2023-01-28T22:35:15;4.0;100.0
21121;DHT22;12519;43.318;21.898;2023-01-28T22:39:52;3.9;100.0
21121;DHT22;12519;43.318;21.898;2023-01-28T22:44:28;3.9;100.0
21121;DHT22;12519;43.318;21.898;2023-01-28T22:49:05;3.9;100.0
21121;DHT22;12519;43.318;21.898;2023-01-28T22:53:41;3.8;100.0
21121;DHT22;12519;43.318;21.898;2023-01-28T22:58:18;3.8;100.0
21121;DHT22;12519;43.318;21.898;2023-01-28T23:02:55;3.8;100.0
21121;DHT22;12519;43.318;21.898;2023-01-28T23:07:32;3.8;100.0
21121;DHT22;12519;43.318;21.898;2023-01-28T23:12:08;3.9;100.0
21121;DHT22;12519;43.318;21.898;2023-01-28T23:16:46;3.9;100.0
21121;DHT22;12519;43.318;21.898;2023-01-28T23:21:27;4.4;88.0
21121;DHT22;12519;43.318;21.898;2023-01-28T23:26:05;4.4;88.0
21121;DHT22;12519;43.318;21.898;2023-01-28T23:30:42;5.0;76.0
21121;DHT22;12519;43.318;21.898;2023-01-28T23:35:19;5.0;76.0
21121;DHT22;12519;43.318;21.898;2023-01-28T23:39:55;4.4;78.0
21121;DHT22;12519;43.318;21.898;2023-01-28T23:44:32;4.4;78.0
21121;DHT22;12519;43.318;21.898;2023-01-28T23:49:08;4.4;78.0
21121;DHT22;12519;43.318;21.898;2023-01-28T23:53:45;3.8;81.0
21121;DHT22;12519;43.318;21.898;2023-01-28T23:58:24;3.8;81.0
